sensor_id;sensor_type;location;lat;lon;timestamp;pressure;altitude;pressure_sealevel;temperature;humidity
5996;BME280;3026;53.612;7.278;2023-05-22T00:01:23;101568.50;;;17.27;100.00
5996;BME280;3026;53.612;7.278;2023-05-22T00:03:51;101562.97;;;17.27;100.00
5996;BME280;3026;53.612;7.278;2023-05-22T00:06:20;101553.19;;;17.25;100.00
5996;BME280;3026;53.612;7.278;2023-05-22T00:08:47;101565.09;;;17.25;100.00
5996;BME280;3026;53.612;7.278;2023-05-22T00:11:14;101553.38;;;17.23;100.00
5996;BME280;3026;53.612;7.278;2023-05-22T00:13:41;101550.63;;;17.23;100.00
5996;BME280;3026;53.612;7.278;2023-05-22T00:16:08;101545.53;;;17.20;100.00
5996;BME280;3026;53.612;7.278;2023-05-22T00:18:35;101543.81;;;17.19;100.00
5996;BME280;3026;53.612;7.278;2023-05-22T00:21:02;101535.56;;;17.19;100.00
5996;BME280;3026;53.612;7.278;2023-05-22T00:23:30;101537.47;;;17.18;100.00
5996;BME280;3026;53.612;7.278;2023-05-22T00:25:57;101529.19;;;17.18;100.00
5996;BME280;3026;53.612;7.278;2023-05-22T00:28:24;101523.88;;;17.17;100.00
5996;BME280;3026;53.612;7.278;2023-05-22T00:30:51;101514.28;;;17.13;100.00
5996;BME280;3026;53.612;7.278;2023-05-22T00:33:17;101507.28;;;17.10;100.00
5996;BME280;3026;53.612;7.278;2023-05-22T00:35:44;101513.84;;;17.09;100.00
5996;BME280;3026;53.612;7.278;2023-05-22T00:38:26;101512.34;;;17.07;100.00
5996;BME280;3026;53.612;7.278;2023-05-22T00:40:55;101517.88;;;17.07;100.00
5996;BME280;3026;53.612;7.278;2023-05-22T00:43:22;101507.25;;;17.04;100.00
5996;BME280;3026;53.612;7.278;2023-05-22T00:45:49;101503.81;;;17.02;100.00
5996;BME280;3026;53.612;7.278;2023-05-22T00:48:16;101505.91;;;17.00;100.00
5996;BME280;3026;53.612;7.278;2023-05-22T00:50:43;101514.38;;;16.98;100.00
5996;BME280;3026;53.612;7.278;2023-05-22T00:53:11;101509.50;;;16.94;100.00
5996;BME280;3026;53.612;7.278;2023-05-22T00:55:38;101508.16;;;16.89;100.00
5996;BME280;3026;53.612;7.278;2023-05-22T00:58:09;101515.97;;;16.86;100.00
5996;BME280;3026;53.612;7.278;2023-05-22T01:00:37;101518.47;;;16.81;100.00
5996;BME280;3026;53.612;7.278;2023-05-22T01:03:07;101512.50;;;16.77;100.00
5996;BME280;3026;53.612;7.278;2023-05-22T01:05:34;101522.22;;;16.73;100.00
5996;BME280;3026;53.612;7.278;2023-05-22T01:08:02;101515.41;;;16.69;100.00
5996;BME280;3026;53.612;7.278;2023-05-22T01:10:29;101516.13;;;16.63;100.00
5996;BME280;3026;53.612;7.278;2023-05-22T01:13:00;101518.34;;;16.53;100.00
5996;BME280;3026;53.612;7.278;2023-05-22T01:15:37;101521.91;;;16.47;100.00
5996;BME280;3026;53.612;7.278;2023-05-22T01:18:10;101524.78;;;16.39;100.00
5996;BME280;3026;53.612;7.278;2023-05-22T01:20:51;101521.75;;;16.33;100.00
5996;BME280;3026;53.612;7.278;2023-05-22T01:23:52;101521.22;;;16.23;100.00
5996;BME280;3026;53.612;7.278;2023-05-22T01:26:42;101514.00;;;16.22;100.00
5996;BME280;3026;53.612;7.278;2023-05-22T01:29:17;101508.00;;;16.19;100.00
5996;BME280;3026;53.612;7.278;2023-05-22T01:31:49;101510.31;;;16.15;100.00
5996;BME280;3026;53.612;7.278;2023-05-22T01:34:19;101510.72;;;16.12;100.00
5996;BME280;3026;53.612;7.278;2023-05-22T01:36:47;101506.25;;;16.11;100.00
5996;BME280;3026;53.612;7.278;2023-05-22T01:39:16;101507.94;;;16.12;100.00
5996;BME280;3026;53.612;7.278;2023-05-22T01:41:43;101505.41;;;16.11;100.00
5996;BME280;3026;53.612;7.278;2023-05-22T01:44:10;101507.94;;;16.12;100.00
5996;BME280;3026;53.612;7.278;2023-05-22T01:46:37;101511.75;;;16.11;100.00
5996;BME280;3026;53.612;7.278;2023-05-22T01:49:05;101503.31;;;16.13;100.00
5996;BME280;3026;53.612;7.278;2023-05-22T01:51:40;101513.06;;;16.15;100.00
5996;BME280;3026;53.612;7.278;2023-05-22T01:54:13;101506.50;;;16.16;100.00
5996;BME280;3026;53.612;7.278;2023-05-22T01:56:48;101497.88;;;16.19;100.00
5996;BME280;3026;53.612;7.278;2023-05-22T01:59:24;101495.97;;;16.20;100.00
5996;BME280;3026;53.612;7.278;2023-05-22T02:01:53;101499.19;;;16.23;100.00
5996;BME280;3026;53.612;7.278;2023-05-22T02:04:22;101495.00;;;16.27;100.00
5996;BME280;3026;53.612;7.278;2023-05-22T02:06:51;101499.47;;;16.28;100.00
5996;BME280;3026;53.612;7.278;2023-05-22T02:09:20;101495.66;;;16.29;100.00
5996;BME280;3026;53.612;7.278;2023-05-22T02:11:49;101501.44;;;16.34;100.00
5996;BME280;3026;53.612;7.278;2023-05-22T02:14:17;101496.59;;;16.37;100.00
5996;BME280;3026;53.612;7.278;2023-05-22T02:16:44;101487.94;;;16.40;100.00
5996;BME280;3026;53.612;7.278;2023-05-22T02:19:12;101481.19;;;16.42;100.00
5996;BME280;3026;53.612;7.278;2023-05-22T02:21:41;101490.97;;;16.45;100.00
5996;BME280;3026;53.612;7.278;2023-05-22T02:24:08;101490.56;;;16.48;100.00
5996;BME280;3026;53.612;7.278;2023-05-22T02:26:35;101485.31;;;16.53;100.00
5996;BME280;3026;53.612;7.278;2023-05-22T02:29:02;101481.31;;;16.55;100.00
5996;BME280;3026;53.612;7.278;2023-05-22T02:31:29;101483.91;;;16.57;100.00
5996;BME280;3026;53.612;7.278;2023-05-22T02:33:56;101478.00;;;16.60;100.00
5996;BME280;3026;53.612;7.278;2023-05-22T02:36:22;101480.53;;;16.61;100.00
5996;BME280;3026;53.612;7.278;2023-05-22T02:38:51;101477.59;;;16.63;100.00
5996;BME280;3026;53.612;7.278;2023-05-22T02:41:19;101479.28;;;16.64;100.00
5996;BME280;3026;53.612;7.278;2023-05-22T02:43:46;101479.28;;;16.64;100.00
5996;BME280;3026;53.612;7.278;2023-05-22T02:46:13;101482.91;;;16.64;100.00
5996;BME280;3026;53.612;7.278;2023-05-22T02:48:40;101463.63;;;16.64;100.00
5996;BME280;3026;53.612;7.278;2023-05-22T02:51:06;101474.63;;;16.64;100.00
5996;BME280;3026;53.612;7.278;2023-05-22T02:53:33;101469.97;;;16.65;100.00
5996;BME280;3026;53.612;7.278;2023-05-22T02:56:06;101478.03;;;16.67;100.00
5996;BME280;3026;53.612;7.278;2023-05-22T02:58:33;101464.88;;;16.62;100.00
5996;BME280;3026;53.612;7.278;2023-05-22T03:01:00;101473.41;;;16.67;100.00
5996;BME280;3026;53.612;7.278;2023-05-22T03:03:27;101464.28;;;16.67;100.00
5996;BME280;3026;53.612;7.278;2023-05-22T03:05:55;101459.66;;;16.67;100.00
5996;BME280;3026;53.612;7.278;2023-05-22T03:08:23;101463.28;;;16.68;100.00
5996;BME280;3026;53.612;7.278;2023-05-22T03:10:50;101457.78;;;16.68;100.00
5996;BME280;3026;53.612;7.278;2023-05-22T03:13:18;101481.69;;;16.67;100.00
5996;BME280;3026;53.612;7.278;2023-05-22T03:15:45;101490.81;;;16.68;100.00
5996;BME280;3026;53.612;7.278;2023-05-22T03:18:12;101495.06;;;16.70;100.00
5996;BME280;3026;53.612;7.278;2023-05-22T03:20:38;101485.75;;;16.71;100.00
5996;BME280;3026;53.612;7.278;2023-05-22T03:23:06;101476.44;;;16.72;100.00
5996;BME280;3026;53.612;7.278;2023-05-22T03:25:33;101481.94;;;16.72;100.00
5996;BME280;3026;53.612;7.278;2023-05-22T03:27:59;101477.28;;;16.73;100.00
5996;BME280;3026;53.612;7.278;2023-05-22T03:30:27;101469.88;;;16.73;100.00
5996;BME280;3026;53.612;7.278;2023-05-22T03:32:54;101480.66;;;16.68;100.00
5996;BME280;3026;53.612;7.278;2023-05-22T03:35:21;101474.28;;;16.68;100.00
5996;BME280;3026;53.612;7.278;2023-05-22T03:37:49;101474.75;;;16.71;100.00
5996;BME280;3026;53.612;7.278;2023-05-22T03:40:16;101467.53;;;16.70;100.00
5996;BME280;3026;53.612;7.278;2023-05-22T03:42:43;101470.28;;;16.70;100.00
5996;BME280;3026;53.612;7.278;2023-05-22T03:45:10;101466.88;;;16.68;100.00
5996;BME280;3026;53.612;7.278;2023-05-22T03:47:38;101448.63;;;16.67;100.00
5996;BME280;3026;53.612;7.278;2023-05-22T03:50:06;101450.50;;;16.67;100.00
5996;BME280;3026;53.612;7.278;2023-05-22T03:52:32;101436.94;;;16.65;100.00
5996;BME280;3026;53.612;7.278;2023-05-22T03:54:59;101428.88;;;16.63;100.00
5996;BME280;3026;53.612;7.278;2023-05-22T03:57:27;101455.16;;;16.66;100.00
5996;BME280;3026;53.612;7.278;2023-05-22T03:59:53;101458.97;;;16.65;100.00
5996;BME280;3026;53.612;7.278;2023-05-22T04:02:20;101465.16;;;16.67;100.00
5996;BME280;3026;53.612;7.278;2023-05-22T04:04:51;101472.53;;;16.67;100.00
5996;BME280;3026;53.612;7.278;2023-05-22T04:07:18;101469.63;;;16.68;100.00
5996;BME280;3026;53.612;7.278;2023-05-22T04:09:45;101472.41;;;16.68;100.00
5996;BME280;3026;53.612;7.278;2023-05-22T04:12:12;101486.16;;;16.68;100.00
5996;BME280;3026;53.612;7.278;2023-05-22T04:14:39;101487.34;;;16.66;100.00
5996;BME280;3026;53.612;7.278;2023-05-22T04:17:05;101491.16;;;16.64;100.00
5996;BME280;3026;53.612;7.278;2023-05-22T04:19:32;101487.75;;;16.62;100.00
5996;BME280;3026;53.612;7.278;2023-05-22T04:22:00;101486.06;;;16.61;100.00
5996;BME280;3026;53.612;7.278;2023-05-22T04:24:27;101491.75;;;16.60;100.00
5996;BME280;3026;53.612;7.278;2023-05-22T04:26:54;101490.25;;;16.57;100.00
5996;BME280;3026;53.612;7.278;2023-05-22T04:29:24;101490.47;;;16.56;100.00
5996;BME280;3026;53.612;7.278;2023-05-22T04:31:52;101485.97;;;16.55;100.00
5996;BME280;3026;53.612;7.278;2023-05-22T04:34:19;101495.97;;;16.56;100.00
5996;BME280;3026;53.612;7.278;2023-05-22T04:36:47;101494.91;;;16.57;100.00
5996;BME280;3026;53.612;7.278;2023-05-22T04:39:15;101496.63;;;16.58;100.00
5996;BME280;3026;53.612;7.278;2023-05-22T04:41:42;101503.81;;;16.59;100.00
5996;BME280;3026;53.612;7.278;2023-05-22T04:44:10;101509.13;;;16.60;100.00
5996;BME280;3026;53.612;7.278;2023-05-22T04:46:38;101501.72;;;16.61;100.00
5996;BME280;3026;53.612;7.278;2023-05-22T04:49:05;101503.44;;;16.62;100.00
5996;BME280;3026;53.612;7.278;2023-05-22T04:51:32;101499.63;;;16.63;100.00
5996;BME280;3026;53.612;7.278;2023-05-22T04:53:59;101495.81;;;16.64;100.00
5996;BME280;3026;53.612;7.278;2023-05-22T04:56:28;101501.31;;;16.64;100.00
5996;BME280;3026;53.612;7.278;2023-05-22T04:58:56;101504.72;;;16.66;100.00
5996;BME280;3026;53.612;7.278;2023-05-22T05:01:23;101497.19;;;16.68;100.00
5996;BME280;3026;53.612;7.278;2023-05-22T05:03:52;101501.44;;;16.71;100.00
5996;BME280;3026;53.612;7.278;2023-05-22T05:06:18;101505.69;;;16.73;100.00
5996;BME280;3026;53.612;7.278;2023-05-22T05:08:46;101503.59;;;16.75;100.00
5996;BME280;3026;53.612;7.278;2023-05-22T05:11:14;101506.13;;;16.77;100.00
5996;BME280;3026;53.612;7.278;2023-05-22T05:13:42;101506.97;;;16.77;100.00
5996;BME280;3026;53.612;7.278;2023-05-22T05:16:08;101501.47;;;16.77;100.00
5996;BME280;3026;53.612;7.278;2023-05-22T05:18:36;101497.66;;;16.78;100.00
5996;BME280;3026;53.612;7.278;2023-05-22T05:21:03;101487.06;;;16.75;100.00
5996;BME280;3026;53.612;7.278;2023-05-22T05:23:30;101500.44;;;16.78;100.00
5996;BME280;3026;53.612;7.278;2023-05-22T05:25:57;101495.31;;;16.75;100.00
5996;BME280;3026;53.612;7.278;2023-05-22T05:28:24;101492.56;;;16.75;100.00
5996;BME280;3026;53.612;7.278;2023-05-22T05:30:52;101501.47;;;16.77;100.00
5996;BME280;3026;53.612;7.278;2023-05-22T05:33:19;101502.53;;;16.76;100.00
5996;BME280;3026;53.612;7.278;2023-05-22T05:35:45;101509.75;;;16.77;100.00
5996;BME280;3026;53.612;7.278;2023-05-22T05:38:14;101510.78;;;16.76;100.00
5996;BME280;3026;53.612;7.278;2023-05-22T05:40:42;101511.66;;;16.77;100.00
5996;BME280;3026;53.612;7.278;2023-05-22T05:43:09;101505.28;;;16.76;100.00
5996;BME280;3026;53.612;7.278;2023-05-22T05:45:38;101504.44;;;16.76;100.00
5996;BME280;3026;53.612;7.278;2023-05-22T05:48:06;101502.94;;;16.73;100.00
5996;BME280;3026;53.612;7.278;2023-05-22T05:50:33;101511.19;;;16.73;100.00
5996;BME280;3026;53.612;7.278;2023-05-22T05:53:00;101509.50;;;16.72;100.00
5996;BME280;3026;53.612;7.278;2023-05-22T05:55:27;101508.84;;;16.70;100.00
5996;BME280;3026;53.612;7.278;2023-05-22T05:57:54;101513.28;;;16.71;100.00
5996;BME280;3026;53.612;7.278;2023-05-22T06:00:21;101509.50;;;16.72;100.00
5996;BME280;3026;53.612;7.278;2023-05-22T06:02:47;101513.28;;;16.71;100.00
5996;BME280;3026;53.612;7.278;2023-05-22T06:05:16;101500.59;;;16.70;100.00
5996;BME280;3026;53.612;7.278;2023-05-22T06:07:43;101501.44;;;16.71;100.00
5996;BME280;3026;53.612;7.278;2023-05-22T06:10:11;101485.75;;;16.71;100.00
5996;BME280;3026;53.612;7.278;2023-05-22T06:12:38;101489.38;;;16.72;100.00
5996;BME280;3026;53.612;7.278;2023-05-22T06:15:06;101515.00;;;16.72;100.00
5996;BME280;3026;53.612;7.278;2023-05-22T06:17:33;101535.31;;;16.71;100.00
5996;BME280;3026;53.612;7.278;2023-05-22T06:20:01;101525.16;;;16.72;100.00
5996;BME280;3026;53.612;7.278;2023-05-22T06:22:30;101539.97;;;16.71;100.00
5996;BME280;3026;53.612;7.278;2023-05-22T06:24:57;101538.28;;;16.70;100.00
5996;BME280;3026;53.612;7.278;2023-05-22T06:27:23;101539.97;;;16.71;100.00
5996;BME280;3026;53.612;7.278;2023-05-22T06:29:51;101539.13;;;16.70;100.00
5996;BME280;3026;53.612;7.278;2023-05-22T06:32:18;101534.00;;;16.67;100.00
5996;BME280;3026;53.612;7.278;2023-05-22T06:34:46;101530.22;;;16.68;100.00
5996;BME280;3026;53.612;7.278;2023-05-22T06:37:13;101539.50;;;16.67;100.00
5996;BME280;3026;53.612;7.278;2023-05-22T06:39:42;101523.75;;;16.61;100.00
5996;BME280;3026;53.612;7.278;2023-05-22T06:42:09;101509.97;;;16.61;100.00
5996;BME280;3026;53.612;7.278;2023-05-22T06:44:36;101483.50;;;16.60;100.00
5996;BME280;3026;53.612;7.278;2023-05-22T06:47:03;101463.94;;;16.55;100.00
5996;BME280;3026;53.612;7.278;2023-05-22T06:49:30;101468.16;;;16.51;100.00
5996;BME280;3026;53.612;7.278;2023-05-22T06:51:57;101482.97;;;16.50;100.00
5996;BME280;3026;53.612;7.278;2023-05-22T06:54:23;101507.94;;;16.48;100.00
5996;BME280;3026;53.612;7.278;2023-05-22T06:56:54;101508.34;;;16.45;100.00
5996;BME280;3026;53.612;7.278;2023-05-22T06:59:21;101506.56;;;16.38;100.00
5996;BME280;3026;53.612;7.278;2023-05-22T07:01:48;101501.81;;;16.31;100.00
5996;BME280;3026;53.612;7.278;2023-05-22T07:04:15;101520.81;;;16.26;100.00
5996;BME280;3026;53.612;7.278;2023-05-22T07:06:41;101530.50;;;16.22;100.00
5996;BME280;3026;53.612;7.278;2023-05-22T07:09:09;101518.56;;;16.15;100.00
5996;BME280;3026;53.612;7.278;2023-05-22T07:11:37;101531.28;;;16.16;100.00
5996;BME280;3026;53.612;7.278;2023-05-22T07:14:05;101526.56;;;16.10;100.00
5996;BME280;3026;53.612;7.278;2023-05-22T07:16:32;101526.16;;;16.13;100.00
5996;BME280;3026;53.612;7.278;2023-05-22T07:19:01;101540.97;;;16.12;100.00
5996;BME280;3026;53.612;7.278;2023-05-22T07:21:27;101528.47;;;16.10;100.00
5996;BME280;3026;53.612;7.278;2023-05-22T07:23:56;101539.25;;;16.11;100.00
5996;BME280;3026;53.612;7.278;2023-05-22T07:26:23;101542.00;;;16.11;100.00
5996;BME280;3026;53.612;7.278;2023-05-22T07:28:51;101540.03;;;16.05;100.00
5996;BME280;3026;53.612;7.278;2023-05-22T07:31:20;101546.16;;;16.07;100.00
5996;BME280;3026;53.612;7.278;2023-05-22T07:33:47;101547.22;;;16.06;100.00
5996;BME280;3026;53.612;7.278;2023-05-22T07:36:13;101547.22;;;16.06;100.00
5996;BME280;3026;53.612;7.278;2023-05-22T07:38:41;101535.75;;;16.02;100.00
5996;BME280;3026;53.612;7.278;2023-05-22T07:41:07;101537.00;;;16.00;100.00
5996;BME280;3026;53.612;7.278;2023-05-22T07:43:34;101546.31;;;15.99;100.00
5996;BME280;3026;53.612;7.278;2023-05-22T07:46:01;101543.34;;;16.00;100.00
5996;BME280;3026;53.612;7.278;2023-05-22T07:48:31;101540.41;;;16.02;100.00
5996;BME280;3026;53.612;7.278;2023-05-22T07:50:58;101537.00;;;16.00;100.00
5996;BME280;3026;53.612;7.278;2023-05-22T07:53:25;101533.94;;;15.95;100.00
5996;BME280;3026;53.612;7.278;2023-05-22T07:55:52;101552.84;;;15.98;100.00
5996;BME280;3026;53.612;7.278;2023-05-22T07:58:18;101553.00;;;15.96;100.00
5996;BME280;3026;53.612;7.278;2023-05-22T08:00:45;101550.25;;;15.96;100.00
5996;BME280;3026;53.612;7.278;2023-05-22T08:03:12;101541.84;;;15.98;100.00
5996;BME280;3026;53.612;7.278;2023-05-22T08:05:40;101558.16;;;15.99;100.00
5996;BME280;3026;53.612;7.278;2023-05-22T08:08:07;101565.34;;;16.00;100.00
5996;BME280;3026;53.612;7.278;2023-05-22T08:10:34;101554.34;;;16.00;100.00
5996;BME280;3026;53.612;7.278;2023-05-22T08:13:01;101548.47;;;16.03;100.00
5996;BME280;3026;53.612;7.278;2023-05-22T08:15:30;101545.13;;;16.08;100.00
5996;BME280;3026;53.612;7.278;2023-05-22T08:17:57;101547.53;;;16.11;100.00
5996;BME280;3026;53.612;7.278;2023-05-22T08:20:24;101532.53;;;16.14;100.00
5996;BME280;3026;53.612;7.278;2023-05-22T08:22:52;101537.63;;;16.17;100.00
5996;BME280;3026;53.612;7.278;2023-05-22T08:25:19;101531.56;;;16.21;100.00
5996;BME280;3026;53.612;7.278;2023-05-22T08:27:47;101520.81;;;16.26;100.00
5996;BME280;3026;53.612;7.278;2023-05-22T08:30:14;101524.22;;;16.28;100.00
5996;BME280;3026;53.612;7.278;2023-05-22T08:32:40;101539.50;;;16.31;100.00
5996;BME280;3026;53.612;7.278;2023-05-22T08:35:08;101536.19;;;16.36;100.00
5996;BME280;3026;53.612;7.278;2023-05-22T08:37:35;101525.44;;;16.41;100.00
5996;BME280;3026;53.612;7.278;2023-05-22T08:40:04;101535.38;;;16.42;100.00
5996;BME280;3026;53.612;7.278;2023-05-22T08:42:32;101534.41;;;16.49;100.00
5996;BME280;3026;53.612;7.278;2023-05-22T08:44:59;101534.22;;;16.51;100.00
5996;BME280;3026;53.612;7.278;2023-05-22T08:47:26;101531.34;;;16.59;100.00
5996;BME280;3026;53.612;7.278;2023-05-22T08:49:54;101528.19;;;16.62;100.00
5996;BME280;3026;53.612;7.278;2023-05-22T08:52:26;101521.66;;;16.63;100.00
5996;BME280;3026;53.612;7.278;2023-05-22T08:54:55;101527.59;;;16.67;100.00
5996;BME280;3026;53.612;7.278;2023-05-22T08:57:24;101526.41;;;16.69;100.00
5996;BME280;3026;53.612;7.278;2023-05-22T08:59:52;101518.41;;;16.74;100.00
5996;BME280;3026;53.612;7.278;2023-05-22T09:02:19;101513.53;;;16.76;100.00
5996;BME280;3026;53.612;7.278;2023-05-22T09:04:46;101515.94;;;16.79;100.00
5996;BME280;3026;53.612;7.278;2023-05-22T09:07:13;101524.44;;;16.84;100.00
5996;BME280;3026;53.612;7.278;2023-05-22T09:09:40;101513.50;;;16.91;100.00
5996;BME280;3026;53.612;7.278;2023-05-22T09:12:08;101507.13;;;16.90;100.00
5996;BME280;3026;53.612;7.278;2023-05-22T09:14:41;101491.06;;;16.94;100.00
5996;BME280;3026;53.612;7.278;2023-05-22T09:17:09;101489.34;;;16.93;100.00
5996;BME280;3026;53.612;7.278;2023-05-22T09:19:36;101492.75;;;16.95;100.00
5996;BME280;3026;53.612;7.278;2023-05-22T09:22:03;101490.44;;;16.99;100.00
5996;BME280;3026;53.612;7.278;2023-05-22T09:24:30;101495.53;;;17.02;100.00
5996;BME280;3026;53.612;7.278;2023-05-22T09:27:05;101488.59;;;17.06;100.00
5996;BME280;3026;53.612;7.278;2023-05-22T09:29:32;101492.66;;;17.10;100.00
5996;BME280;3026;53.612;7.278;2023-05-22T09:32:14;101499.50;;;17.14;100.00
5996;BME280;3026;53.612;7.278;2023-05-22T09:34:41;101498.03;;;17.18;100.00
5996;BME280;3026;53.612;7.278;2023-05-22T09:37:11;101497.63;;;17.21;100.00
5996;BME280;3026;53.612;7.278;2023-05-22T09:39:38;101488.31;;;17.22;100.00
5996;BME280;3026;53.612;7.278;2023-05-22T09:42:06;101484.69;;;17.21;100.00
5996;BME280;3026;53.612;7.278;2023-05-22T09:44:35;101487.94;;;17.25;100.00
5996;BME280;3026;53.612;7.278;2023-05-22T09:47:05;101490.25;;;17.28;100.00
5996;BME280;3026;53.612;7.278;2023-05-22T09:49:40;101488.16;;;17.30;100.00
5996;BME280;3026;53.612;7.278;2023-05-22T09:52:08;101499.81;;;17.32;100.00
5996;BME280;3026;53.612;7.278;2023-05-22T09:54:40;101487.09;;;17.31;100.00
5996;BME280;3026;53.612;7.278;2023-05-22T09:57:12;101485.41;;;17.30;100.00
5996;BME280;3026;53.612;7.278;2023-05-22T09:59:43;101496.00;;;17.33;100.00
5996;BME280;3026;53.612;7.278;2023-05-22T10:02:13;101497.34;;;17.37;100.00
5996;BME280;3026;53.612;7.278;2023-05-22T10:04:46;101489.72;;;17.39;100.00
5996;BME280;3026;53.612;7.278;2023-05-22T10:07:15;101485.91;;;17.40;100.00
5996;BME280;3026;53.612;7.278;2023-05-22T10:09:58;101493.75;;;17.43;100.00
5996;BME280;3026;53.612;7.278;2023-05-22T10:12:30;101482.09;;;17.48;100.00
5996;BME280;3026;53.612;7.278;2023-05-22T10:15:00;101479.63;;;17.53;100.00
5996;BME280;3026;53.612;7.278;2023-05-22T10:17:28;101493.19;;;17.55;100.00
5996;BME280;3026;53.612;7.278;2023-05-22T10:19:57;101491.09;;;17.57;100.00
5996;BME280;3026;53.612;7.278;2023-05-22T10:22:26;101494.47;;;17.59;100.00
5996;BME280;3026;53.612;7.278;2023-05-22T10:24:53;101490.28;;;17.63;100.00
5996;BME280;3026;53.612;7.278;2023-05-22T10:27:20;101488.16;;;17.65;100.00
5996;BME280;3026;53.612;7.278;2023-05-22T10:29:51;101488.59;;;17.68;100.00
5996;BME280;3026;53.612;7.278;2023-05-22T10:32:26;101483.59;;;17.72;100.00
5996;BME280;3026;53.612;7.278;2023-05-22T10:35:04;101475.94;;;17.74;100.00
5996;BME280;3026;53.612;7.278;2023-05-22T10:37:43;101477.44;;;17.76;100.00
5996;BME280;3026;53.612;7.278;2023-05-22T10:40:13;101470.00;;;17.77;100.00
5996;BME280;3026;53.612;7.278;2023-05-22T10:42:42;101468.97;;;17.78;100.00
5996;BME280;3026;53.612;7.278;2023-05-22T10:45:09;101469.81;;;17.78;100.00
5996;BME280;3026;53.612;7.278;2023-05-22T10:47:36;101464.09;;;17.80;100.00
5996;BME280;3026;53.612;7.278;2023-05-22T10:50:06;101454.75;;;17.81;100.00
5996;BME280;3026;53.612;7.278;2023-05-22T10:52:34;101454.75;;;17.81;100.00
5996;BME280;3026;53.612;7.278;2023-05-22T10:55:04;101448.00;;;17.84;100.00
5996;BME280;3026;53.612;7.278;2023-05-22T10:57:32;101458.59;;;17.87;100.00
5996;BME280;3026;53.612;7.278;2023-05-22T11:00:08;101453.53;;;17.90;100.00
5996;BME280;3026;53.612;7.278;2023-05-22T11:02:38;101450.34;;;17.93;100.00
5996;BME280;3026;53.612;7.278;2023-05-22T11:05:37;101453.09;;;17.93;100.00
5996;BME280;3026;53.612;7.278;2023-05-22T11:08:36;101453.09;;;17.93;100.00
5996;BME280;3026;53.612;7.278;2023-05-22T11:11:13;101457.56;;;17.94;100.00
5996;BME280;3026;53.612;7.278;2023-05-22T11:13:40;101454.78;;;17.94;100.00
5996;BME280;3026;53.612;7.278;2023-05-22T11:16:08;101458.22;;;17.96;100.00
5996;BME280;3026;53.612;7.278;2023-05-22T11:18:36;101463.97;;;18.01;100.00
5996;BME280;3026;53.612;7.278;2023-05-22T11:21:03;101457.81;;;17.99;100.00
5996;BME280;3026;53.612;7.278;2023-05-22T11:23:33;101448.44;;;17.94;100.00
5996;BME280;3026;53.612;7.278;2023-05-22T11:26:19;101461.19;;;17.95;100.00
5996;BME280;3026;53.612;7.278;2023-05-22T11:28:50;101456.09;;;17.98;100.00
5996;BME280;3026;53.612;7.278;2023-05-22T11:31:18;101457.81;;;17.99;100.00
5996;BME280;3026;53.612;7.278;2023-05-22T11:33:47;101459.09;;;18.03;100.00
5996;BME280;3026;53.612;7.278;2023-05-22T11:36:14;101450.41;;;18.06;100.00
5996;BME280;3026;53.612;7.278;2023-05-22T11:38:41;101447.66;;;18.06;100.00
5996;BME280;3026;53.612;7.278;2023-05-22T11:41:09;101442.97;;;18.07;100.00
5996;BME280;3026;53.612;7.278;2023-05-22T11:43:41;101438.72;;;18.04;100.00
5996;BME280;3026;53.612;7.278;2023-05-22T11:46:09;101435.94;;;18.04;100.00
5996;BME280;3026;53.612;7.278;2023-05-22T11:48:39;101435.31;;;18.02;100.00
5996;BME280;3026;53.612;7.278;2023-05-22T11:51:07;101433.63;;;18.01;100.00
5996;BME280;3026;53.612;7.278;2023-05-22T11:53:34;101427.25;;;18.01;100.00
5996;BME280;3026;53.612;7.278;2023-05-22T11:56:02;101418.75;;;18.02;100.00
5996;BME280;3026;53.612;7.278;2023-05-22T11:58:29;101408.34;;;18.04;100.00
5996;BME280;3026;53.612;7.278;2023-05-22T12:00:59;101396.25;;;18.05;100.00
5996;BME280;3026;53.612;7.278;2023-05-22T12:03:27;101400.50;;;18.01;100.00
5996;BME280;3026;53.612;7.278;2023-05-22T12:05:54;101395.41;;;17.98;100.00
5996;BME280;3026;53.612;7.278;2023-05-22T12:08:21;101387.34;;;17.97;100.00
5996;BME280;3026;53.612;7.278;2023-05-22T12:10:49;101391.34;;;17.94;100.00
5996;BME280;3026;53.612;7.278;2023-05-22T12:13:22;101379.06;;;17.97;100.00
5996;BME280;3026;53.612;7.278;2023-05-22T12:15:49;101378.41;;;18.01;100.00
5996;BME280;3026;53.612;7.278;2023-05-22T12:18:18;101378.00;;;18.04;100.00
5996;BME280;3026;53.612;7.278;2023-05-22T12:20:45;101390.97;;;18.11;100.00
5996;BME280;3026;53.612;7.278;2023-05-22T12:23:19;101376.75;;;18.14;100.00
5996;BME280;3026;53.612;7.278;2023-05-22T12:25:46;101382.72;;;18.24;100.00
5996;BME280;3026;53.612;7.278;2023-05-22T12:28:12;101380.81;;;18.31;100.00
5996;BME280;3026;53.612;7.278;2023-05-22T12:30:39;101377.44;;;18.42;100.00
5996;BME280;3026;53.612;7.278;2023-05-22T12:33:11;101377.88;;;18.52;100.00
5996;BME280;3026;53.612;7.278;2023-05-22T12:35:40;101390.66;;;18.67;100.00
5996;BME280;3026;53.612;7.278;2023-05-22T12:38:07;101384.06;;;18.68;100.00
5996;BME280;3026;53.612;7.278;2023-05-22T12:40:34;101377.47;;;18.69;100.00
5996;BME280;3026;53.612;7.278;2023-05-22T12:43:01;101383.22;;;18.67;100.00
5996;BME280;3026;53.612;7.278;2023-05-22T12:45:28;101395.75;;;18.70;100.00
5996;BME280;3026;53.612;7.278;2023-05-22T12:47:55;101390.00;;;18.71;100.00
5996;BME280;3026;53.612;7.278;2023-05-22T12:50:22;101406.13;;;18.74;100.00
5996;BME280;3026;53.612;7.278;2023-05-22T12:52:50;101398.28;;;18.78;100.00
5996;BME280;3026;53.612;7.278;2023-05-22T12:55:17;101403.38;;;18.81;100.00
5996;BME280;3026;53.612;7.278;2023-05-22T12:57:44;101401.25;;;18.83;100.00
5996;BME280;3026;53.612;7.278;2023-05-22T13:00:11;101390.84;;;18.85;100.00
5996;BME280;3026;53.612;7.278;2023-05-22T13:02:38;101390.00;;;18.91;100.00
5996;BME280;3026;53.612;7.278;2023-05-22T13:05:06;101390.41;;;19.01;100.00
5996;BME280;3026;53.612;7.278;2023-05-22T13:07:33;101395.47;;;19.17;100.00